Time;durP1;ratioP1;P1;durP2;ratioP2;P2;SDS_P1;SDS_P2;PMS_P1;PMS_P2;Temp;Humidity;BMP_temperature;BMP_pressure;BME280_temperature;BME280_humidity;BME280_pressure;Samples;Min_cycle;Max_cycle;Signal;HPM_P1;HPM_P2
2024/03/19 00:01:41;;;;;;;10.13;8.90;;;12.30;99.90;;;;;;5072657;28;20205;-59
2024/03/19 00:04:08;;;;;;;11.47;9.40;;;12.30;99.90;;;;;;5072746;28;20208;-60
2024/03/19 00:06:35;;;;;;;9.77;8.63;;;12.40;99.90;;;;;;5072577;28;20204;-60
2024/03/19 00:09:03;;;;;;;10.20;9.10;;;12.40;99.90;;;;;;5072729;28;20236;-60
2024/03/19 00:11:30;;;;;;;11.97;8.90;;;12.30;99.90;;;;;;5073035;28;20278;-60
2024/03/19 00:13:58;;;;;;;9.63;8.53;;;12.30;99.90;;;;;;5072895;28;20201;-59
2024/03/19 00:16:25;;;;;;;10.63;8.63;;;12.20;99.90;;;;;;5072316;28;20205;-59
2024/03/19 00:18:52;;;;;;;10.27;8.70;;;12.10;99.90;;;;;;5072727;28;20256;-59
2024/03/19 00:21:19;;;;;;;10.13;8.93;;;12.10;99.90;;;;;;5072418;28;20216;-59
2024/03/19 00:23:47;;;;;;;11.60;9.10;;;12.10;99.90;;;;;;5072383;28;20292;-59
2024/03/19 00:26:14;;;;;;;9.73;8.70;;;12.00;99.90;;;;;;5071903;28;20258;-59
2024/03/19 00:28:41;;;;;;;10.80;8.70;;;12.10;99.90;;;;;;5072071;28;20228;-59
2024/03/19 00:31:10;;;;;;;10.60;8.70;;;12.10;99.90;;;;;;5072064;28;20224;-60
2024/03/19 00:33:36;;;;;;;12.03;8.90;;;12.10;99.90;;;;;;5072242;28;20201;-60
2024/03/19 00:36:06;;;;;;;11.40;9.27;;;12.00;99.90;;;;;;5071914;28;20592;-60
2024/03/19 00:38:34;;;;;;;10.80;9.33;;;11.90;99.90;;;;;;5072300;28;20287;-60
2024/03/19 00:41:01;;;;;;;10.70;9.30;;;11.90;99.90;;;;;;5071989;28;20211;-60
2024/03/19 00:43:27;;;;;;;10.43;8.73;;;12.00;99.90;;;;;;5071913;28;20624;-60
2024/03/19 00:45:54;;;;;;;10.03;8.67;;;12.00;99.90;;;;;;5071729;28;20232;-60
2024/03/19 00:48:22;;;;;;;10.70;8.60;;;12.00;99.90;;;;;;5071828;28;20670;-60
2024/03/19 00:50:49;;;;;;;12.30;8.43;;;12.00;99.90;;;;;;5071891;28;20229;-60
2024/03/19 00:53:16;;;;;;;10.63;8.53;;;12.00;99.90;;;;;;5073097;28;20646;-58
2024/03/19 00:55:44;;;;;;;10.20;8.57;;;12.00;99.90;;;;;;5078215;28;20262;-60
2024/03/19 00:58:11;;;;;;;12.07;8.77;;;11.90;99.90;;;;;;5078338;28;20208;-60
2024/03/19 01:00:37;;;;;;;11.53;9.00;;;11.90;99.90;;;;;;5078227;28;20264;-60
2024/03/19 01:03:04;;;;;;;10.60;8.67;;;11.90;99.90;;;;;;5078582;28;20208;-58
2024/03/19 01:05:32;;;;;;;10.27;8.80;;;11.80;99.90;;;;;;5078239;28;20212;-58
2024/03/19 01:07:59;;;;;;;10.50;8.50;;;11.80;99.90;;;;;;5078409;28;20212;-59
2024/03/19 01:10:25;;;;;;;10.57;8.43;;;11.80;99.90;;;;;;5078223;28;20231;-59
2024/03/19 01:12:52;;;;;;;9.77;8.27;;;11.70;99.90;;;;;;5078240;28;20258;-59
2024/03/19 01:15:19;;;;;;;10.77;8.23;;;11.70;99.90;;;;;;5078241;28;20208;-58
2024/03/19 01:17:45;;;;;;;9.83;8.30;;;11.70;99.90;;;;;;5078380;28;20205;-58
2024/03/19 01:20:12;;;;;;;9.43;8.10;;;11.60;99.90;;;;;;5078383;28;20224;-59
2024/03/19 01:22:40;;;;;;;10.63;8.40;;;11.40;99.90;;;;;;5078265;28;20742;-60
2024/03/19 01:25:08;;;;;;;13.43;9.13;;;11.30;99.90;;;;;;5077814;28;20732;-58
2024/03/19 01:27:35;;;;;;;10.40;8.20;;;11.30;99.90;;;;;;5078401;28;20580;-58
2024/03/19 01:30:02;;;;;;;10.73;8.90;;;11.20;99.90;;;;;;5078285;28;20229;-58
2024/03/19 01:32:29;;;;;;;12.40;8.67;;;11.20;99.90;;;;;;5078291;28;20213;-59
2024/03/19 01:34:55;;;;;;;11.47;8.70;;;11.20;99.90;;;;;;5078101;28;20205;-60
2024/03/19 01:37:22;;;;;;;12.73;9.23;;;11.10;99.90;;;;;;5078098;28;20255;-59
2024/03/19 01:39:52;;;;;;;10.50;9.27;;;11.10;99.90;;;;;;5077942;28;20251;-60
2024/03/19 01:42:18;;;;;;;11.93;8.97;;;11.10;99.90;;;;;;5078122;28;20695;-58
2024/03/19 01:44:45;;;;;;;13.93;10.30;;;11.10;99.90;;;;;;5077971;28;20200;-58
2024/03/19 01:47:12;;;;;;;14.30;11.17;;;11.10;99.90;;;;;;5078194;28;20240;-58
2024/03/19 01:49:39;;;;;;;12.87;10.33;;;11.00;99.90;;;;;;5078220;28;20267;-61
2024/03/19 01:52:07;;;;;;;12.77;9.53;;;11.00;99.90;;;;;;5077874;28;20229;-58
2024/03/19 01:54:34;;;;;;;11.23;9.57;;;10.90;99.90;;;;;;5077895;28;20204;-59
2024/03/19 01:57:03;;;;;;;13.40;9.33;;;10.80;99.90;;;;;;5077894;28;20450;-59
2024/03/19 01:59:30;;;;;;;10.63;9.13;;;10.70;99.90;;;;;;5077844;28;20233;-59
2024/03/19 02:01:57;;;;;;;12.20;9.50;;;10.70;99.90;;;;;;5077942;28;20200;-59
2024/03/19 02:04:24;;;;;;;11.60;8.63;;;10.60;99.90;;;;;;5077477;28;20671;-59
2024/03/19 02:06:51;;;;;;;13.53;9.10;;;10.60;99.90;;;;;;5073371;28;20209;-59
2024/03/19 02:09:18;;;;;;;12.00;8.47;;;10.50;99.90;;;;;;5074986;28;20252;-59
2024/03/19 02:11:45;;;;;;;10.23;9.20;;;10.50;99.90;;;;;;5074645;28;20605;-59
2024/03/19 02:14:13;;;;;;;12.27;9.70;;;10.40;99.90;;;;;;5074713;28;20227;-59
2024/03/19 02:16:41;;;;;;;11.93;9.60;;;10.40;99.90;;;;;;5074364;28;20221;-59
2024/03/19 02:19:08;;;;;;;11.63;9.47;;;10.30;99.90;;;;;;5074684;28;20275;-59
2024/03/19 02:21:35;;;;;;;11.13;9.30;;;10.30;99.90;;;;;;5074402;28;20236;-59
2024/03/19 02:24:04;;;;;;;12.80;9.70;;;10.30;99.90;;;;;;5074672;28;20627;-59
2024/03/19 02:26:32;;;;;;;13.23;9.40;;;10.20;99.90;;;;;;5074290;28;20208;-59
2024/03/19 02:28:59;;;;;;;10.57;8.57;;;10.20;99.90;;;;;;5074420;28;20225;-59
2024/03/19 02:31:27;;;;;;;12.70;10.10;;;10.20;99.90;;;;;;5074266;28;20225;-59
2024/03/19 02:33:55;;;;;;;12.37;8.47;;;10.20;99.90;;;;;;5074294;28;20205;-59
2024/03/19 02:36:22;;;;;;;10.13;8.50;;;10.10;99.90;;;;;;5074129;28;20259;-59
2024/03/19 02:38:48;;;;;;;10.93;8.83;;;10.10;99.90;;;;;;5074406;28;20583;-59
2024/03/19 02:41:16;;;;;;;11.60;9.00;;;10.10;99.90;;;;;;5074195;28;20201;-59
2024/03/19 02:43:43;;;;;;;13.83;10.10;;;10.20;99.90;;;;;;5073970;28;20235;-59
2024/03/19 02:46:10;;;;;;;11.93;8.63;;;10.20;99.90;;;;;;5073962;28;20208;-59
2024/03/19 02:48:37;;;;;;;11.67;9.27;;;10.20;99.90;;;;;;5073770;28;20229;-59
2024/03/19 02:51:04;;;;;;;14.23;8.73;;;10.30;99.90;;;;;;5074159;28;20628;-59
2024/03/19 02:53:30;;;;;;;15.73;9.53;;;10.40;99.90;;;;;;5073997;28;20567;-59
2024/03/19 02:55:57;;;;;;;12.13;9.23;;;10.40;99.90;;;;;;5073739;28;20228;-59
2024/03/19 02:58:26;;;;;;;12.00;9.40;;;10.30;99.90;;;;;;5073916;28;20524;-60
2024/03/19 03:00:53;;;;;;;14.80;9.33;;;10.30;99.90;;;;;;5073645;28;20204;-59
2024/03/19 03:03:20;;;;;;;14.63;11.37;;;10.30;99.90;;;;;;5073855;28;20750;-59
2024/03/19 03:05:47;;;;;;;14.27;10.53;;;10.30;99.90;;;;;;5073316;28;20667;-59
2024/03/19 03:08:14;;;;;;;14.83;10.93;;;10.30;99.90;;;;;;5073577;28;20259;-59
2024/03/19 03:10:41;;;;;;;16.60;10.97;;;10.40;99.90;;;;;;5073445;28;20225;-59
2024/03/19 03:13:07;;;;;;;15.10;11.17;;;10.40;99.90;;;;;;5073443;28;20209;-59
2024/03/19 03:15:35;;;;;;;13.67;11.00;;;10.50;99.90;;;;;;5073367;28;20205;-61
2024/03/19 03:18:02;;;;;;;14.10;10.70;;;10.50;99.90;;;;;;5073211;28;20208;-59
2024/03/19 03:20:29;;;;;;;12.47;10.97;;;10.60;99.90;;;;;;5073128;28;20722;-59
2024/03/19 03:22:55;;;;;;;12.63;10.83;;;10.60;99.90;;;;;;5073503;28;20213;-61
2024/03/19 03:25:22;;;;;;;13.17;10.60;;;10.60;99.90;;;;;;5073016;28;20212;-59
2024/03/19 03:27:50;;;;;;;13.70;10.57;;;10.60;99.90;;;;;;5073169;28;20279;-60
2024/03/19 03:30:16;;;;;;;13.27;10.57;;;10.50;99.90;;;;;;5072772;28;20221;-59
2024/03/19 03:32:46;;;;;;;12.50;10.53;;;10.50;99.90;;;;;;5072926;28;20207;-59
2024/03/19 03:35:13;;;;;;;12.07;10.20;;;10.60;99.90;;;;;;5072982;28;20201;-59
2024/03/19 03:37:41;;;;;;;11.23;10.00;;;10.70;99.90;;;;;;5073053;28;20240;-58
2024/03/19 03:40:13;;;;;;;11.87;9.90;;;10.80;99.90;;;;;;5072836;28;20228;-62
2024/03/19 03:42:40;;;;;;;12.50;9.83;;;10.80;99.90;;;;;;5072785;28;20258;-58
2024/03/19 03:45:08;;;;;;;11.83;9.63;;;10.80;99.90;;;;;;5072787;28;20205;-60
2024/03/19 03:47:35;;;;;;;10.50;9.17;;;10.90;99.90;;;;;;5073006;28;20208;-59
2024/03/19 03:50:03;;;;;;;9.47;8.47;;;10.90;99.90;;;;;;5072744;28;20251;-59
2024/03/19 03:52:32;;;;;;;10.80;8.57;;;10.90;99.90;;;;;;5072594;28;20319;-59
2024/03/19 03:54:59;;;;;;;8.90;7.40;;;11.00;99.90;;;;;;5072310;28;20729;-58
2024/03/19 03:57:26;;;;;;;9.93;8.30;;;11.10;99.90;;;;;;5072578;28;20246;-60
2024/03/19 03:59:52;;;;;;;10.33;8.07;;;11.10;99.90;;;;;;5072692;28;20236;-59
2024/03/19 04:02:19;;;;;;;8.70;7.80;;;11.20;99.90;;;;;;5072402;28;20201;-60
2024/03/19 04:04:46;;;;;;;10.80;8.20;;;11.20;99.90;;;;;;5072224;28;20292;-62
2024/03/19 04:07:14;;;;;;;9.53;8.47;;;11.20;99.90;;;;;;5072351;28;20204;-62
2024/03/19 04:09:41;;;;;;;9.63;8.53;;;11.10;99.90;;;;;;5072250;28;20606;-61
2024/03/19 04:12:08;;;;;;;12.77;9.30;;;11.10;99.90;;;;;;5072370;28;20221;-61
2024/03/19 04:14:36;;;;;;;12.87;8.93;;;11.10;99.90;;;;;;5072234;28;20675;-60
2024/03/19 04:17:02;;;;;;;10.40;8.83;;;11.10;99.90;;;;;;5072193;28;20659;-59
2024/03/19 04:19:29;;;;;;;10.87;8.97;;;11.10;99.90;;;;;;5072574;28;20225;-62
2024/03/19 04:21:56;;;;;;;11.50;9.13;;;11.00;99.90;;;;;;5072201;28;20204;-59
2024/03/19 04:24:24;;;;;;;9.93;8.50;;;10.90;99.90;;;;;;5072017;28;20212;-58
2024/03/19 04:26:50;;;;;;;10.13;8.63;;;10.70;99.90;;;;;;5072308;28;20584;-59
2024/03/19 04:29:17;;;;;;;12.70;9.43;;;10.60;99.90;;;;;;5071447;28;20255;-59
2024/03/19 04:31:44;;;;;;;10.80;8.13;;;10.50;99.90;;;;;;5072177;28;20722;-59
2024/03/19 04:34:11;;;;;;;11.80;9.33;;;10.40;99.90;;;;;;5072169;28;20217;-59
2024/03/19 04:36:38;;;;;;;10.97;9.30;;;10.30;99.90;;;;;;5071742;28;20204;-59
2024/03/19 04:39:10;;;;;;;13.30;9.17;;;10.30;99.90;;;;;;5071773;28;20224;-59
2024/03/19 04:41:38;;;;;;;12.13;9.77;;;10.30;99.90;;;;;;5071968;28;20200;-59
2024/03/19 04:44:05;;;;;;;16.90;12.83;;;10.40;99.90;;;;;;5072358;28;20200;-59
2024/03/19 04:46:32;;;;;;;11.30;8.93;;;10.50;99.90;;;;;;5071928;28;20232;-59
2024/03/19 04:48:59;;;;;;;15.37;10.30;;;10.50;99.90;;;;;;5072087;28;20258;-58
2024/03/19 04:51:26;;;;;;;11.87;9.57;;;10.60;99.90;;;;;;5072305;28;20216;-58
2024/03/19 04:53:53;;;;;;;10.57;8.90;;;10.60;99.90;;;;;;5071932;28;20205;-59
2024/03/19 04:56:21;;;;;;;10.60;9.43;;;10.60;99.90;;;;;;5071841;28;20790;-61
2024/03/19 04:58:50;;;;;;;14.53;9.63;;;10.60;99.90;;;;;;5071919;28;20342;-61
2024/03/19 05:01:18;;;;;;;14.53;10.10;;;10.60;99.90;;;;;;5072203;28;20205;-59
2024/03/19 05:03:46;;;;;;;15.70;10.63;;;10.50;99.90;;;;;;5071857;28;20270;-60
2024/03/19 05:06:12;;;;;;;14.97;11.83;;;10.50;99.90;;;;;;5071620;28;20208;-60
2024/03/19 05:08:41;;;;;;;15.10;10.93;;;10.40;99.90;;;;;;5071518;28;20733;-59
2024/03/19 05:11:08;;;;;;;14.47;11.03;;;10.40;99.90;;;;;;5071931;28;20282;-61
2024/03/19 05:13:34;;;;;;;13.30;10.53;;;10.30;99.90;;;;;;5071777;28;20205;-61
2024/03/19 05:16:02;;;;;;;14.20;10.57;;;10.20;99.90;;;;;;5071827;28;20213;-59
2024/03/19 05:18:29;;;;;;;13.87;10.67;;;10.10;99.90;;;;;;5071610;28;20207;-59
2024/03/19 05:20:56;;;;;;;14.30;11.13;;;10.10;99.90;;;;;;5071816;28;20208;-59
2024/03/19 05:23:22;;;;;;;13.60;10.50;;;10.00;99.90;;;;;;5071801;28;20256;-60
2024/03/19 05:25:49;;;;;;;13.77;10.77;;;9.90;99.90;;;;;;5071436;28;20205;-61
2024/03/19 05:28:15;;;;;;;18.67;14.27;;;9.90;99.90;;;;;;5071561;28;20205;-60
2024/03/19 05:30:42;;;;;;;14.00;10.90;;;9.90;99.90;;;;;;5071539;28;20205;-60
2024/03/19 05:33:10;;;;;;;13.73;10.63;;;9.90;99.90;;;;;;5071286;28;20274;-60
2024/03/19 05:35:37;;;;;;;14.10;10.60;;;9.90;99.90;;;;;;5071483;28;20209;-59
2024/03/19 05:38:04;;;;;;;14.60;10.37;;;9.90;99.90;;;;;;5071432;28;20642;-58
2024/03/19 05:40:31;;;;;;;14.13;10.00;;;9.80;99.90;;;;;;5073477;28;20777;-59
2024/03/19 05:42:58;;;;;;;14.10;11.23;;;9.90;99.90;;;;;;5075091;28;20197;-59
2024/03/19 05:45:25;;;;;;;13.50;10.50;;;9.90;99.90;;;;;;5075281;28;20205;-59
2024/03/19 05:47:52;;;;;;;20.43;10.27;;;9.90;99.90;;;;;;5074968;28;20217;-59
2024/03/19 05:50:20;;;;;;;14.80;10.43;;;9.90;99.90;;;;;;5075080;28;20228;-58
2024/03/19 05:52:46;;;;;;;15.10;10.90;;;9.80;99.90;;;;;;5075093;28;20220;-59
2024/03/19 05:55:13;;;;;;;13.87;10.53;;;9.90;99.90;;;;;;5074696;28;20205;-59
2024/03/19 05:57:40;;;;;;;15.23;10.93;;;9.90;99.90;;;;;;5074916;28;20208;-60
2024/03/19 06:00:10;;;;;;;13.30;10.73;;;10.00;99.90;;;;;;5074523;28;20248;-59
2024/03/19 06:02:38;;;;;;;13.83;11.50;;;10.00;99.90;;;;;;5074695;28;20662;-59
2024/03/19 06:05:05;;;;;;;13.73;10.47;;;10.10;99.90;;;;;;5074536;28;20254;-59
2024/03/19 06:07:33;;;;;;;12.93;11.10;;;10.10;99.90;;;;;;5074758;28;20211;-59
2024/03/19 06:10:00;;;;;;;12.77;10.60;;;10.20;99.90;;;;;;5074534;28;20782;-60
2024/03/19 06:12:26;;;;;;;13.73;10.27;;;10.20;99.90;;;;;;5074450;28;20269;-59
2024/03/19 06:14:52;;;;;;;12.77;10.50;;;10.20;99.90;;;;;;5074100;28;20205;-59
2024/03/19 06:17:19;;;;;;;12.03;9.50;;;10.30;99.90;;;;;;5074612;28;20215;-59
2024/03/19 06:19:47;;;;;;;12.03;9.80;;;10.30;99.90;;;;;;5074334;28;20228;-59
2024/03/19 06:22:13;;;;;;;11.33;10.07;;;10.40;99.90;;;;;;5074371;28;20203;-59
2024/03/19 06:24:41;;;;;;;11.83;9.03;;;10.40;99.90;;;;;;5074150;28;20209;-60
2024/03/19 06:27:08;;;;;;;11.97;8.80;;;10.60;99.90;;;;;;5074204;28;20217;-60
2024/03/19 06:29:34;;;;;;;10.97;9.50;;;10.70;99.90;;;;;;5074566;28;20225;-59
2024/03/19 06:32:01;;;;;;;12.40;10.57;;;10.90;99.90;;;;;;5074011;28;20228;-59
2024/03/19 06:34:28;;;;;;;9.03;7.67;;;11.40;99.90;;;;;;5074464;28;20204;-59
2024/03/19 06:36:55;;;;;;;8.90;7.33;;;12.00;99.90;;;;;;5073855;28;20205;-56
2024/03/19 06:39:23;;;;;;;10.40;7.23;;;12.80;99.90;;;;;;5073945;28;20224;-56
2024/03/19 06:41:51;;;;;;;7.80;7.00;;;13.50;99.90;;;;;;5073516;28;20205;-57
2024/03/19 06:44:18;;;;;;;7.23;6.43;;;14.10;99.90;;;;;;5073933;28;20213;-56
2024/03/19 06:46:45;;;;;;;7.20;6.50;;;14.40;99.90;;;;;;5073584;28;20232;-57
2024/03/19 06:49:11;;;;;;;6.37;5.77;;;14.80;99.90;;;;;;5073749;28;20232;-58
2024/03/19 06:51:38;;;;;;;6.67;5.97;;;15.40;99.90;;;;;;5072861;28;20209;-58
2024/03/19 06:54:05;;;;;;;6.33;5.73;;;15.90;99.90;;;;;;5073751;28;20537;-58
2024/03/19 06:56:32;;;;;;;6.38;5.75;;;16.80;99.90;;;;;;5073455;28;20212;-58
2024/03/19 06:59:00;;;;;;;5.70;5.20;;;17.70;99.90;;;;;;5073614;28;20255;-58
2024/03/19 07:01:27;;;;;;;5.72;5.22;;;18.60;99.90;;;;;;5073286;28;20212;-58
2024/03/19 07:03:54;;;;;;;5.75;5.22;;;19.50;99.90;;;;;;5073476;28;20211;-59
2024/03/19 07:06:21;;;;;;;5.25;4.75;;;20.30;99.90;;;;;;5073099;28;20209;-58
2024/03/19 07:08:53;;;;;;;6.22;5.20;;;21.00;99.90;;;;;;5073334;28;20233;-58
2024/03/19 07:11:19;;;;;;;6.03;5.47;;;21.30;99.90;;;;;;5073628;28;20284;-59
2024/03/19 07:13:46;;;;;;;6.45;5.72;;;20.80;99.90;;;;;;5073229;28;20229;-58
2024/03/19 07:16:14;;;;;;;5.05;4.57;;;20.00;99.90;;;;;;5073127;28;20200;-59
2024/03/19 07:18:41;;;;;;;5.80;4.80;;;19.30;99.90;;;;;;5073086;28;20236;-59
2024/03/19 07:21:08;;;;;;;5.05;4.55;;;18.70;99.90;;;;;;5073228;28;20205;-59
2024/03/19 07:23:35;;;;;;;5.63;4.93;;;18.90;99.90;;;;;;5073049;28;20448;-58
2024/03/19 07:26:02;;;;;;;5.50;4.90;;;19.50;99.90;;;;;;5072941;28;20244;-59
2024/03/19 07:28:29;;;;;;;6.07;5.22;;;20.30;99.90;;;;;;5073136;28;20205;-59
2024/03/19 07:30:57;;;;;;;5.97;5.38;;;20.90;99.90;;;;;;5072951;28;20205;-59
2024/03/19 07:33:25;;;;;;;5.90;5.20;;;21.40;99.90;;;;;;5072940;28;20225;-59
2024/03/19 07:35:52;;;;;;;5.97;5.38;;;21.60;99.90;;;;;;5072639;28;20204;-59
2024/03/19 07:38:19;;;;;;;5.00;4.60;;;21.80;99.90;;;;;;5072766;28;20209;-59
2024/03/19 07:40:46;;;;;;;5.53;5.03;;;22.10;99.90;;;;;;5073175;28;20239;-59
2024/03/19 07:43:14;;;;;;;6.20;5.60;;;22.40;99.90;;;;;;5072882;28;20232;-59
2024/03/19 07:45:41;;;;;;;6.20;5.60;;;22.50;99.90;;;;;;5072656;28;20299;-59
2024/03/19 07:48:11;;;;;;;6.07;5.53;;;22.60;99.90;;;;;;5072672;28;20236;-60
2024/03/19 07:50:40;;;;;;;5.15;4.70;;;23.00;99.90;;;;;;5072615;28;20298;-63
2024/03/19 07:53:07;;;;;;;4.95;4.53;;;23.10;99.90;;;;;;5072489;28;20225;-57
2024/03/19 07:55:34;;;;;;;5.65;5.05;;;23.20;99.90;;;;;;5072523;28;20236;-60
2024/03/19 07:58:01;;;;;;;5.80;5.30;;;23.00;99.90;;;;;;5072131;28;20215;-59
2024/03/19 08:00:28;;;;;;;6.32;5.72;;;22.60;99.90;;;;;;5071994;28;20685;-59
2024/03/19 08:02:55;;;;;;;6.25;5.65;;;22.20;99.90;;;;;;5071356;28;20740;-59
2024/03/19 08:05:21;;;;;;;7.10;6.20;;;21.50;99.90;;;;;;5071702;28;20244;-60
2024/03/19 08:07:49;;;;;;;7.97;6.78;;;20.90;99.90;;;;;;5072068;28;20740;-60
2024/03/19 08:10:16;;;;;;;5.97;5.47;;;20.30;99.90;;;;;;5072191;28;20221;-58
2024/03/19 08:12:43;;;;;;;4.80;4.40;;;20.00;99.90;;;;;;5072206;28;20272;-60
2024/03/19 08:15:10;;;;;;;5.45;4.05;;;19.90;99.90;;;;;;5071982;28;20213;-58
2024/03/19 08:17:37;;;;;;;5.85;4.78;;;19.80;99.90;;;;;;5072017;28;20205;-58
2024/03/19 08:20:07;;;;;;;5.22;4.65;;;19.70;99.90;;;;;;5071946;28;20600;-58
2024/03/19 08:22:33;;;;;;;7.78;4.63;;;19.60;99.90;;;;;;5072154;28;20308;-59
2024/03/19 08:25:01;;;;;;;5.20;4.70;;;19.60;99.90;;;;;;5071899;28;20486;-60
2024/03/19 08:27:28;;;;;;;6.55;4.43;;;19.50;99.90;;;;;;5072143;28;20219;-59
2024/03/19 08:29:55;;;;;;;4.70;3.70;;;19.20;99.90;;;;;;5071852;28;20225;-59
2024/03/19 08:32:22;;;;;;;4.35;3.95;;;18.90;99.90;;;;;;5071874;28;20240;-58
2024/03/19 08:34:48;;;;;;;6.32;4.38;;;18.80;99.90;;;;;;5071555;28;20300;-59
2024/03/19 08:37:15;;;;;;;5.20;4.65;;;18.50;99.90;;;;;;5072065;28;20208;-58
2024/03/19 08:39:42;;;;;;;4.75;4.25;;;18.10;99.90;;;;;;5071854;28;20228;-57
2024/03/19 08:42:10;;;;;;;7.15;5.07;;;18.10;99.90;;;;;;5071887;28;20255;-57
2024/03/19 08:44:37;;;;;;;5.35;4.85;;;18.20;99.90;;;;;;5071687;28;20624;-57
2024/03/19 08:47:05;;;;;;;6.75;5.30;;;18.10;99.90;;;;;;5071476;28;20244;-57
2024/03/19 08:49:32;;;;;;;5.07;4.40;;;18.10;99.90;;;;;;5071478;28;20752;-57
2024/03/19 08:51:58;;;;;;;5.20;4.70;;;18.30;99.90;;;;;;5071573;28;20205;-57
2024/03/19 08:54:25;;;;;;;4.57;4.15;;;17.80;99.90;;;;;;5072050;28;20208;-55
2024/03/19 08:56:52;;;;;;;6.63;5.60;;;17.60;99.90;;;;;;5071101;28;20621;-57
2024/03/19 08:59:20;;;;;;;6.93;5.05;;;17.80;99.90;;;;;;5084889;28;20736;-62
2024/03/19 09:01:47;;;;;;;4.90;4.40;;;18.00;99.90;;;;;;5091729;28;20584;-59
2024/03/19 09:04:13;;;;;;;5.00;4.50;;;17.70;99.90;;;;;;5091609;28;20747;-57
2024/03/19 09:06:40;;;;;;;4.95;4.30;;;17.70;99.90;;;;;;5091553;28;20230;-60
2024/03/19 09:09:07;;;;;;;4.40;4.00;;;17.70;99.90;;;;;;5091855;28;20224;-58
2024/03/19 09:11:36;;;;;;;4.63;4.22;;;17.80;99.90;;;;;;5091888;28;20208;-60
2024/03/19 09:14:03;;;;;;;5.82;3.92;;;18.10;99.90;;;;;;5090952;28;20227;-62
2024/03/19 09:16:30;;;;;;;4.30;3.85;;;18.70;99.90;;;;;;5095587;28;20649;-60
2024/03/19 09:18:57;;;;;;;4.28;3.88;;;19.30;99.90;;;;;;5095473;28;20224;-61
2024/03/19 09:21:24;;;;;;;5.15;4.05;;;19.30;99.90;;;;;;5095637;28;20212;-60
2024/03/19 09:23:51;;;;;;;4.78;4.30;;;19.20;99.90;;;;;;5095719;28;20295;-59
2024/03/19 09:26:18;;;;;;;4.47;4.07;;;19.10;99.90;;;;;;5094774;28;20258;-60
2024/03/19 09:28:45;;;;;;;6.82;4.28;;;19.40;99.90;;;;;;5095063;28;20220;-59
2024/03/19 09:31:11;;;;;;;4.50;3.95;;;19.30;99.90;;;;;;5095406;28;20207;-60
2024/03/19 09:33:39;;;;;;;4.18;3.63;;;19.20;99.90;;;;;;5095311;28;20232;-61
2024/03/19 09:36:07;;;;;;;6.22;3.92;;;19.50;99.90;;;;;;5095191;28;20211;-59
2024/03/19 09:38:33;;;;;;;4.88;4.18;;;19.80;99.90;;;;;;5095059;28;20216;-59
2024/03/19 09:41:05;;;;;;;4.78;4.20;;;20.00;99.90;;;;;;5095084;28;20212;-59
2024/03/19 09:43:35;;;;;;;4.65;4.25;;;19.80;99.90;;;;;;5095146;28;20674;-62
2024/03/19 09:46:02;;;;;;;4.43;3.90;;;19.30;99.90;;;;;;5095005;28;20204;-57
2024/03/19 09:48:29;;;;;;;4.20;3.80;;;19.40;99.90;;;;;;5095130;28;20211;-58
2024/03/19 09:50:58;;;;;;;5.03;4.00;;;19.70;99.90;;;;;;5095258;28;20253;-58
2024/03/19 09:53:26;;;;;;;4.40;4.00;;;19.90;99.90;;;;;;5095191;28;20220;-58
2024/03/19 09:55:54;;;;;;;4.40;4.00;;;20.10;99.90;;;;;;5094878;28;20704;-58
2024/03/19 09:58:22;;;;;;;4.18;3.75;;;19.90;99.90;;;;;;5095197;28;20257;-58
2024/03/19 10:00:51;;;;;;;4.40;4.00;;;19.50;99.90;;;;;;5095483;28;20731;-58
2024/03/19 10:03:18;;;;;;;3.83;3.42;;;19.00;99.90;;;;;;5095156;28;20204;-59
2024/03/19 10:05:45;;;;;;;3.78;3.42;;;18.80;99.90;;;;;;5094883;28;20224;-59
2024/03/19 10:08:14;;;;;;;5.05;3.85;;;19.00;99.90;;;;;;5095076;28;20258;-59
2024/03/19 10:10:41;;;;;;;5.70;3.88;;;19.50;99.90;;;;;;5095262;28;20207;-59
2024/03/19 10:13:12;;;;;;;5.05;3.75;;;19.30;99.90;;;;;;5094671;28;20229;-59
2024/03/19 10:15:39;;;;;;;4.70;3.67;;;18.90;99.90;;;;;;5094983;28;20609;-58
2024/03/19 10:18:07;;;;;;;3.58;3.20;;;18.80;99.90;;;;;;5095241;28;20204;-57
2024/03/19 10:20:36;;;;;;;4.75;4.00;;;18.90;99.90;;;;;;5094861;28;20233;-58
2024/03/19 10:23:05;;;;;;;4.18;3.45;;;19.00;99.90;;;;;;5094915;28;20204;-58
2024/03/19 10:25:34;;;;;;;3.67;3.22;;;19.10;99.90;;;;;;5094338;28;20261;-58
2024/03/19 10:28:05;;;;;;;6.20;3.22;;;19.00;99.90;;;;;;5094420;28;20209;-58
2024/03/19 10:30:32;;;;;;;4.40;3.38;;;18.70;99.90;;;;;;5094364;28;20258;-58
2024/03/19 10:33:05;;;;;;;3.95;3.47;;;18.50;99.90;;;;;;5094577;28;20340;-58
2024/03/19 10:35:33;;;;;;;6.63;4.78;;;18.30;99.90;;;;;;5094206;28;20240;-58
2024/03/19 10:37:59;;;;;;;7.57;3.33;;;18.30;99.90;;;;;;5094273;28;20580;-59
2024/03/19 10:40:26;;;;;;;3.45;3.10;;;18.50;99.90;;;;;;5094311;28;20236;-58
2024/03/19 10:42:55;;;;;;;4.18;3.50;;;18.70;99.90;;;;;;5094451;28;20204;-58
2024/03/19 10:45:25;;;;;;;7.75;5.25;;;18.80;99.90;;;;;;5093941;28;20588;-58
2024/03/19 10:47:53;;;;;;;4.28;3.25;;;18.50;99.90;;;;;;5093926;28;20204;-59
2024/03/19 10:50:21;;;;;;;3.88;3.28;;;18.50;99.90;;;;;;5094324;28;20228;-59
2024/03/19 10:52:54;;;;;;;4.22;3.35;;;18.60;99.90;;;;;;5093551;28;20653;-59
2024/03/19 10:55:21;;;;;;;4.43;3.35;;;18.60;99.90;;;;;;5094415;28;20212;-59
2024/03/19 10:57:48;;;;;;;5.78;3.40;;;18.60;99.90;;;;;;5094539;28;20200;-59
2024/03/19 11:00:23;;;;;;;3.58;3.03;;;18.60;99.90;;;;;;5093906;28;20235;-59
2024/03/19 11:02:51;;;;;;;3.70;3.40;;;18.70;99.90;;;;;;5094889;28;20207;-59
2024/03/19 11:05:19;;;;;;;3.67;2.85;;;18.90;99.90;;;;;;5094300;28;20254;-58
2024/03/19 11:07:48;;;;;;;3.30;2.80;;;19.00;99.90;;;;;;5094009;28;20239;-59
2024/03/19 11:10:27;;;;;;;4.05;3.03;;;19.00;99.90;;;;;;5094188;28;20226;-60
2024/03/19 11:12:58;;;;;;;3.58;2.50;;;18.70;99.90;;;;;;5093650;28;20211;-60
2024/03/19 11:15:30;;;;;;;3.70;2.65;;;18.60;99.90;;;;;;5093812;28;20263;-59
2024/03/19 11:17:57;;;;;;;3.75;2.75;;;18.60;99.90;;;;;;5094161;28;20208;-60
2024/03/19 11:20:29;;;;;;;5.70;2.85;;;18.80;99.90;;;;;;5094107;28;20228;-59
2024/03/19 11:22:56;;;;;;;3.33;2.53;;;19.20;99.90;;;;;;5093744;28;20232;-59
2024/03/19 11:25:23;;;;;;;2.95;2.65;;;19.40;99.90;;;;;;5093134;28;20208;-59
2024/03/19 11:27:51;;;;;;;4.22;3.17;;;19.40;99.90;;;;;;5094001;28;20207;-59
2024/03/19 11:30:19;;;;;;;2.78;2.08;;;19.40;99.90;;;;;;5093717;28;20220;-60
2024/03/19 11:32:49;;;;;;;3.03;2.55;;;19.80;99.90;;;;;;5093666;28;20299;-59
2024/03/19 11:35:18;;;;;;;2.88;2.60;;;20.20;99.90;;;;;;5093323;28;20236;-59
2024/03/19 11:37:47;;;;;;;3.38;1.60;;;20.50;99.90;;;;;;5092857;28;20208;-59
2024/03/19 11:40:14;;;;;;;2.65;1.55;;;20.50;99.90;;;;;;5093322;28;20224;-60
2024/03/19 11:42:41;;;;;;;2.33;1.70;;;20.50;99.90;;;;;;5093276;28;20685;-62
2024/03/19 11:45:11;;;;;;;2.03;1.67;;;20.80;99.90;;;;;;5093267;28;20682;-60
2024/03/19 11:47:37;;;;;;;2.63;2.17;;;20.90;99.90;;;;;;5093088;28;20219;-59
2024/03/19 11:50:14;;;;;;;2.28;1.98;;;21.10;99.90;;;;;;5092922;28;20749;-59
2024/03/19 11:52:41;;;;;;;4.00;2.15;;;21.20;99.90;;;;;;5093338;28;20208;-57
2024/03/19 11:55:10;;;;;;;3.47;1.75;;;21.20;99.90;;;;;;5092776;28;20281;-58
2024/03/19 11:57:37;;;;;;;2.70;1.30;;;21.40;99.90;;;;;;5092878;28;20243;-58
2024/03/19 12:00:11;;;;;;;2.72;1.58;;;21.60;99.90;;;;;;5092597;28;20236;-58
2024/03/19 12:02:39;;;;;;;2.70;1.48;;;21.90;99.90;;;;;;5092797;28;20206;-58
2024/03/19 12:05:13;;;;;;;3.17;1.30;;;21.80;99.90;;;;;;5092800;28;20200;-57
2024/03/19 12:07:43;;;;;;;1.75;1.40;;;21.70;99.90;;;;;;5092972;28;20199;-57
2024/03/19 12:10:22;;;;;;;2.78;1.58;;;21.90;99.90;;;;;;5092781;28;20227;-59
2024/03/19 12:12:50;;;;;;;2.28;1.60;;;22.10;99.90;;;;;;5092712;28;20200;-59
2024/03/19 12:15:18;;;;;;;2.08;1.58;;;22.40;99.90;;;;;;5092013;28;20316;-57
2024/03/19 12:17:46;;;;;;;1.30;1.20;;;22.60;99.90;;;;;;5092391;28;20628;-58
2024/03/19 12:20:15;;;;;;;3.15;1.60;;;22.40;99.90;;;;;;5092492;28;20227;-58
2024/03/19 12:22:42;;;;;;;1.70;1.02;;;22.10;99.90;;;;;;5092427;28;20716;-58
2024/03/19 12:25:10;;;;;;;1.63;1.20;;;21.90;99.90;;;;;;5091958;28;20200;-58
2024/03/19 12:27:39;;;;;;;2.30;1.10;;;21.90;99.90;;;;;;5092111;28;20682;-58
2024/03/19 12:30:09;;;;;;;1.73;1.05;;;21.70;99.90;;;;;;5092469;28;20674;-57
2024/03/19 12:32:47;;;;;;;4.70;2.22;;;21.50;99.90;;;;;;5092854;28;20211;-58
2024/03/19 12:35:15;;;;;;;2.35;1.20;;;21.60;99.90;;;;;;5092617;28;20259;-58
2024/03/19 12:37:43;;;;;;;1.75;0.98;;;21.80;99.90;;;;;;5092420;28;20253;-58
2024/03/19 12:40:14;;;;;;;2.42;1.40;;;21.90;99.90;;;;;;5092027;28;20232;-57
2024/03/19 12:42:44;;;;;;;3.55;2.90;;;22.10;99.90;;;;;;5092287;28;20219;-57